Time;durP1;ratioP1;P1;durP2;ratioP2;P2;SDS_P1;SDS_P2;PMS_P1;PMS_P2;Temp;Humidity;BMP_temperature;BMP_pressure;BME280_temperature;BME280_humidity;BME280_pressure;Samples;Min_cycle;Max_cycle;Signal;HPM_P1;HPM_P2
2022/09/21 00:00:45;;;;;;;3.67;2.20;;;7.50;99.90;;;;;;4804827;29;20557;-67
2022/09/21 00:03:11;;;;;;;2.90;1.90;;;7.50;99.90;;;;;;4824830;29;20476;-67
2022/09/21 00:05:37;;;;;;;3.85;2.08;;;7.40;99.90;;;;;;4825191;29;20049;-67
2022/09/21 00:08:04;;;;;;;3.75;2.10;;;7.40;99.90;;;;;;4808199;29;20051;-67
2022/09/21 00:10:31;;;;;;;2.35;2.15;;;7.40;99.90;;;;;;4822912;29;20403;-67
2022/09/21 00:12:57;;;;;;;4.38;2.30;;;7.40;99.90;;;;;;4825310;29;20145;-67
2022/09/21 00:15:24;;;;;;;6.25;2.50;;;7.40;99.90;;;;;;4791267;29;20051;-67
2022/09/21 00:17:54;;;;;;;5.55;2.60;;;7.40;99.90;;;;;;4822510;29;20109;-67
2022/09/21 00:20:20;;;;;;;4.93;2.45;;;7.40;99.90;;;;;;4794877;29;20184;-67
2022/09/21 00:22:46;;;;;;;3.40;2.53;;;7.40;99.90;;;;;;4825089;29;20050;-67
2022/09/21 00:25:13;;;;;;;3.90;2.30;;;7.40;99.90;;;;;;4824397;29;20102;-67
2022/09/21 00:27:39;;;;;;;6.95;2.28;;;7.40;99.90;;;;;;4825297;29;20447;-67
2022/09/21 00:30:05;;;;;;;4.50;2.20;;;7.40;99.90;;;;;;4808428;29;20176;-67
2022/09/21 00:32:33;;;;;;;3.75;2.05;;;7.30;99.90;;;;;;4824284;29;20121;-67
2022/09/21 00:35:00;;;;;;;6.63;2.60;;;7.30;99.90;;;;;;4824440;29;20482;-67
2022/09/21 00:37:26;;;;;;;3.08;2.53;;;7.30;99.90;;;;;;4808056;29;20061;-67
2022/09/21 00:39:52;;;;;;;4.95;2.30;;;7.30;99.90;;;;;;4809013;29;20437;-67
2022/09/21 00:42:20;;;;;;;7.60;2.67;;;7.30;99.90;;;;;;4814244;29;20047;-67
2022/09/21 00:44:46;;;;;;;3.58;2.30;;;7.20;99.90;;;;;;4791633;29;20062;-67
2022/09/21 00:47:20;;;;;;;6.07;2.10;;;7.20;99.90;;;;;;4801567;29;20512;-67
2022/09/21 00:49:49;;;;;;;5.68;2.72;;;7.10;99.90;;;;;;4825594;29;20066;-67
2022/09/21 00:52:18;;;;;;;4.97;2.50;;;7.20;99.90;;;;;;4824306;29;20501;-67
2022/09/21 00:55:05;;;;;;;2.85;2.30;;;7.20;99.90;;;;;;4792308;29;20484;-67
2022/09/21 00:57:31;;;;;;;2.30;2.10;;;7.20;99.90;;;;;;4819016;29;20384;-67
2022/09/21 01:00:00;;;;;;;2.88;2.35;;;7.10;99.90;;;;;;4825589;29;20054;-67
2022/09/21 01:02:27;;;;;;;3.90;2.30;;;7.00;99.90;;;;;;4825572;29;20116;-67
2022/09/21 01:04:53;;;;;;;3.50;2.38;;;7.00;99.90;;;;;;4809105;29;20067;-67
2022/09/21 01:07:24;;;;;;;6.60;2.45;;;7.00;99.90;;;;;;4807579;29;20054;-67
2022/09/21 01:09:54;;;;;;;3.67;2.42;;;7.00;99.90;;;;;;4824934;29;20046;-67
2022/09/21 01:12:37;;;;;;;3.65;2.25;;;6.90;99.90;;;;;;4808463;29;20098;-67
2022/09/21 01:15:29;;;;;;;4.25;2.55;;;6.90;99.90;;;;;;4825578;29;20054;-67
2022/09/21 01:18:06;;;;;;;4.55;2.47;;;6.90;99.90;;;;;;4782117;29;20058;-67
2022/09/21 01:21:10;;;;;;;4.50;2.33;;;6.80;99.90;;;;;;4824528;29;20054;-67
2022/09/21 01:24:03;;;;;;;5.45;2.50;;;6.80;99.90;;;;;;4790757;29;20119;-67
2022/09/21 01:26:54;;;;;;;3.53;3.05;;;6.80;99.90;;;;;;4806596;29;20057;-67
2022/09/21 01:29:37;;;;;;;6.57;2.85;;;6.80;99.90;;;;;;4816260;29;20523;-67
2022/09/21 01:32:08;;;;;;;3.80;2.50;;;6.80;99.90;;;;;;4822725;29;20034;-67
2022/09/21 01:34:44;;;;;;;2.70;2.20;;;6.70;99.90;;;;;;4825011;29;20157;-67
2022/09/21 01:37:14;;;;;;;5.03;2.25;;;6.70;99.90;;;;;;4824125;29;20078;-67
2022/09/21 01:39:44;;;;;;;4.68;2.60;;;6.70;99.90;;;;;;4824601;29;20122;-66
2022/09/21 01:42:12;;;;;;;5.18;2.65;;;6.70;99.90;;;;;;4824374;29;20058;-67
2022/09/21 01:44:39;;;;;;;5.25;2.53;;;6.70;99.90;;;;;;4808150;29;20476;-67
2022/09/21 01:47:09;;;;;;;4.32;2.90;;;6.70;99.90;;;;;;4823430;29;20058;-67
2022/09/21 01:49:37;;;;;;;4.57;2.70;;;6.70;99.90;;;;;;4823825;29;20054;-67
2022/09/21 01:52:17;;;;;;;4.88;2.95;;;6.70;99.90;;;;;;4823901;29;20061;-67
2022/09/21 01:54:56;;;;;;;4.43;2.53;;;6.70;99.90;;;;;;4808589;29;20476;-67
2022/09/21 01:57:30;;;;;;;3.70;2.78;;;6.60;99.90;;;;;;4811866;29;20434;-67
2022/09/21 01:59:58;;;;;;;3.30;2.70;;;6.60;99.90;;;;;;4813095;29;20047;-67
2022/09/21 02:02:33;;;;;;;2.20;2.00;;;6.60;99.90;;;;;;4823215;29;20105;-67
2022/09/21 02:05:01;;;;;;;4.78;2.40;;;6.50;99.90;;;;;;4819558;29;20055;-67
2022/09/21 02:07:26;;;;;;;5.30;2.40;;;6.50;99.90;;;;;;4818660;29;20050;-67
2022/09/21 02:09:54;;;;;;;4.22;2.70;;;6.50;99.90;;;;;;4808328;29;20456;-67
2022/09/21 02:12:20;;;;;;;3.22;2.63;;;6.50;99.90;;;;;;4822844;29;20046;-67
2022/09/21 02:14:46;;;;;;;4.28;2.47;;;6.50;99.90;;;;;;4808123;29;20344;-67
2022/09/21 02:17:33;;;;;;;3.50;2.28;;;6.50;99.90;;;;;;4824004;29;20054;-67
2022/09/21 02:20:19;;;;;;;3.40;2.55;;;6.50;99.90;;;;;;4820661;29;20051;-67
2022/09/21 02:23:09;;;;;;;7.20;2.95;;;6.40;99.90;;;;;;4814456;29;20110;-67
2022/09/21 02:26:02;;;;;;;4.30;2.60;;;6.50;99.90;;;;;;4811091;29;20103;-67
2022/09/21 02:28:39;;;;;;;6.32;2.33;;;6.50;99.90;;;;;;4819666;29;20065;-66
2022/09/21 02:31:27;;;;;;;3.65;2.40;;;6.40;99.90;;;;;;4823787;29;20559;-66
2022/09/21 02:34:22;;;;;;;3.90;2.80;;;6.40;99.90;;;;;;4805949;29;20107;-66
2022/09/21 02:37:01;;;;;;;4.68;2.53;;;6.30;99.90;;;;;;4803065;29;20476;-67
2022/09/21 02:40:01;;;;;;;4.20;2.60;;;6.30;99.90;;;;;;4812006;29;20046;-66
2022/09/21 02:42:32;;;;;;;3.10;2.80;;;6.30;99.90;;;;;;4785978;29;20483;-67
2022/09/21 02:45:06;;;;;;;3.88;2.85;;;6.20;99.90;;;;;;4822244;29;20061;-66
2022/09/21 02:48:00;;;;;;;9.05;3.05;;;6.20;99.90;;;;;;4823555;29;20111;-66
2022/09/21 02:50:41;;;;;;;3.90;2.63;;;6.20;99.90;;;;;;4823179;29;20533;-67
2022/09/21 02:53:09;;;;;;;5.18;2.50;;;6.20;99.90;;;;;;4822207;29;20054;-67
2022/09/21 02:55:36;;;;;;;4.43;2.30;;;6.10;99.90;;;;;;4806945;29;20054;-67
2022/09/21 02:58:05;;;;;;;4.03;2.65;;;6.20;99.90;;;;;;4820215;29;20484;-67
2022/09/21 03:00:33;;;;;;;4.22;2.40;;;6.10;99.90;;;;;;4821363;29;20050;-67
2022/09/21 03:02:59;;;;;;;2.40;2.20;;;6.10;99.90;;;;;;4790565;29;20060;-67
2022/09/21 03:05:25;;;;;;;3.15;2.20;;;6.10;99.90;;;;;;4823831;29;20046;-67
2022/09/21 03:07:51;;;;;;;5.57;2.65;;;6.10;99.90;;;;;;4805733;29;20092;-67
2022/09/21 03:10:18;;;;;;;2.75;1.90;;;6.00;99.90;;;;;;4823376;29;20066;-67
2022/09/21 03:12:45;;;;;;;3.92;2.50;;;6.10;99.90;;;;;;4821686;29;20125;-67
2022/09/21 03:15:10;;;;;;;2.97;2.45;;;6.00;99.90;;;;;;4805541;29;20101;-67
2022/09/21 03:17:36;;;;;;;2.78;2.22;;;6.00;99.90;;;;;;4821936;29;20508;-67
2022/09/21 03:20:01;;;;;;;3.78;2.45;;;6.00;99.90;;;;;;4824148;29;20061;-67
2022/09/21 03:36:12;;;;;;;3.05;2.58;;;5.80;99.90;;;;;;5749748;24;21325;-66
2022/09/21 03:38:38;;;;;;;2.72;2.30;;;6.10;99.90;;;;;;4791589;29;20051;-66
2022/09/21 03:41:04;;;;;;;3.03;1.80;;;5.70;99.90;;;;;;4797537;29;20111;-66
2022/09/21 03:43:30;;;;;;;5.82;2.53;;;5.70;99.90;;;;;;4825747;29;20121;-66
2022/09/21 03:45:56;;;;;;;2.20;2.00;;;5.70;99.90;;;;;;4822948;29;20117;-66
2022/09/21 03:48:22;;;;;;;2.60;2.00;;;5.70;99.90;;;;;;4824355;29;20123;-66
2022/09/21 03:50:48;;;;;;;2.65;2.03;;;5.70;99.90;;;;;;4810492;29;20038;-66
2022/09/21 03:53:17;;;;;;;3.80;2.15;;;5.70;99.90;;;;;;4825420;29;20047;-66
2022/09/21 03:55:42;;;;;;;6.18;2.08;;;5.70;99.90;;;;;;4809499;29;20488;-66
2022/09/21 03:58:09;;;;;;;2.25;2.05;;;5.70;99.90;;;;;;4825926;29;20050;-67
2022/09/21 04:00:36;;;;;;;4.47;2.30;;;6.00;99.90;;;;;;4795318;29;20098;-66
2022/09/21 04:03:02;;;;;;;2.17;1.98;;;5.70;99.90;;;;;;4795399;29;20096;-66
2022/09/21 04:05:28;;;;;;;2.15;1.98;;;5.70;99.90;;;;;;4825441;29;20073;-67
2022/09/21 04:07:55;;;;;;;4.20;2.28;;;5.60;99.90;;;;;;4823902;29;20605;-67
2022/09/21 04:10:25;;;;;;;5.80;2.35;;;5.70;99.90;;;;;;4811913;29;20042;-66
2022/09/21 04:12:51;;;;;;;2.28;2.00;;;5.60;99.90;;;;;;4808900;29;20050;-66
2022/09/21 04:15:18;;;;;;;2.40;2.20;;;5.60;99.90;;;;;;4807612;29;20470;-66
2022/09/21 04:17:45;;;;;;;2.40;2.20;;;5.60;99.90;;;;;;4824626;29;20046;-66
2022/09/21 04:20:11;;;;;;;2.88;2.40;;;5.60;99.90;;;;;;4825289;29;20407;-67
2022/09/21 04:22:37;;;;;;;3.65;2.55;;;5.50;99.90;;;;;;4823318;29;20134;-67
2022/09/21 04:25:04;;;;;;;3.42;2.30;;;5.70;99.90;;;;;;4809817;29;20046;-66
2022/09/21 04:27:30;;;;;;;2.55;2.35;;;5.60;99.90;;;;;;4826079;29;20480;-66
2022/09/21 04:29:56;;;;;;;3.13;2.38;;;5.50;99.90;;;;;;4825334;29;20480;-67
2022/09/21 04:32:22;;;;;;;4.05;2.38;;;5.50;99.90;;;;;;4793433;29;20050;-66
2022/09/21 04:34:47;;;;;;;2.50;2.13;;;5.50;99.90;;;;;;4818235;29;20125;-67
2022/09/21 04:37:13;;;;;;;4.95;2.50;;;5.50;99.90;;;;;;4823697;29;20054;-67
2022/09/21 04:39:39;;;;;;;2.85;2.65;;;5.40;99.90;;;;;;4806606;29;20050;-67
2022/09/21 04:42:05;;;;;;;3.40;2.20;;;5.50;99.90;;;;;;4823939;29;20129;-67
2022/09/21 04:44:31;;;;;;;3.38;2.72;;;5.50;99.90;;;;;;4807428;29;20071;-67
2022/09/21 04:50:18;;;;;;;3.75;2.55;;;5.50;99.90;;;;;;4807609;29;20098;-67
2022/09/21 04:52:44;;;;;;;2.60;2.30;;;5.40;99.90;;;;;;4827316;29;20053;-67
2022/09/21 04:55:09;;;;;;;2.67;2.35;;;5.40;99.90;;;;;;4844031;29;20052;-67
2022/09/21 04:57:35;;;;;;;4.72;2.45;;;5.30;99.90;;;;;;4827463;29;20069;-67
2022/09/21 05:00:04;;;;;;;2.78;2.53;;;5.30;99.90;;;;;;4841112;29;20102;-67
2022/09/21 05:02:29;;;;;;;4.55;2.53;;;5.30;99.90;;;;;;4804780;29;20107;-67
2022/09/21 05:04:56;;;;;;;4.15;2.78;;;5.30;99.90;;;;;;4811859;29;20054;-67
2022/09/21 05:07:22;;;;;;;4.13;3.05;;;5.30;99.90;;;;;;4801261;29;20050;-67
2022/09/21 05:10:04;;;;;;;4.28;3.00;;;5.30;99.90;;;;;;4805184;29;20070;-67
2022/09/21 05:12:42;;;;;;;3.92;2.95;;;5.30;99.90;;;;;;4813657;29;20089;-69
2022/09/21 05:15:10;;;;;;;3.38;2.70;;;5.30;99.90;;;;;;4820203;29;20073;-67
2022/09/21 05:17:36;;;;;;;2.60;2.40;;;5.30;99.90;;;;;;4819943;29;20046;-67
2022/09/21 05:20:03;;;;;;;4.50;2.40;;;5.30;99.90;;;;;;4820184;29;20042;-68
2022/09/21 05:22:28;;;;;;;3.15;2.60;;;5.30;99.90;;;;;;4823068;29;20061;-66
2022/09/21 05:24:54;;;;;;;2.80;2.60;;;5.20;99.90;;;;;;4804992;29;20058;-68
2022/09/21 05:27:20;;;;;;;2.40;2.10;;;5.20;99.90;;;;;;4792042;29;20039;-65
2022/09/21 05:30:39;;;;;;;3.22;2.90;;;5.20;99.90;;;;;;4806608;29;20042;-68
2022/09/21 05:33:07;;;;;;;5.70;2.35;;;5.20;99.90;;;;;;4805898;29;20054;-67
2022/09/21 05:36:23;;;;;;;5.65;2.22;;;5.20;99.90;;;;;;4801997;29;20397;-67
2022/09/21 05:38:49;;;;;;;2.92;2.70;;;5.20;99.90;;;;;;4813567;29;20077;-68
2022/09/21 05:41:15;;;;;;;4.20;2.65;;;5.30;99.90;;;;;;4795336;29;20050;-67
2022/09/21 05:43:41;;;;;;;6.28;3.00;;;5.30;99.90;;;;;;4797778;29;20039;-67
2022/09/21 05:46:34;;;;;;;3.50;2.58;;;5.30;99.90;;;;;;4788568;29;20469;-67
2022/09/21 05:49:05;;;;;;;3.40;2.60;;;5.30;99.90;;;;;;4804460;29;20051;-67
2022/09/21 05:51:43;;;;;;;3.15;2.80;;;5.30;99.90;;;;;;4775321;29;20055;-67
2022/09/21 05:54:42;;;;;;;4.40;2.50;;;5.30;99.90;;;;;;4821967;29;20042;-67
2022/09/21 05:57:38;;;;;;;2.95;2.60;;;5.30;99.90;;;;;;4821052;29;20050;-68
2022/09/21 06:00:13;;;;;;;3.67;2.30;;;5.40;99.90;;;;;;4807020;29;20559;-67
2022/09/21 06:03:07;;;;;;;3.55;3.25;;;5.40;99.90;;;;;;4791543;29;20083;-67
2022/09/21 06:05:33;;;;;;;5.85;3.80;;;5.40;99.90;;;;;;4824993;29;20073;-67
2022/09/21 06:07:58;;;;;;;5.18;3.88;;;5.40;99.90;;;;;;4806673;29;20480;-67
2022/09/21 06:10:33;;;;;;;4.18;3.20;;;5.50;99.90;;;;;;4807174;29;20471;-68
2022/09/21 06:12:59;;;;;;;4.68;3.08;;;5.50;99.90;;;;;;4806958;29;20050;-67
2022/09/21 06:15:24;;;;;;;3.47;2.85;;;5.50;99.90;;;;;;4803359;29;20110;-68
2022/09/21 06:17:50;;;;;;;3.35;3.05;;;5.60;99.90;;;;;;4820940;29;20425;-67
2022/09/21 06:28:30;;;;;;;3.70;2.50;;;6.10;99.90;;;;;;4821874;29;20062;-68
2022/09/21 06:31:46;;;;;;;5.43;3.10;;;6.30;99.90;;;;;;4807396;29;20046;-68
2022/09/21 06:34:12;;;;;;;3.50;2.80;;;6.40;99.90;;;;;;4806742;29;20114;-68
2022/09/21 06:36:39;;;;;;;3.95;2.97;;;6.50;99.90;;;;;;4780770;29;20062;-69
2022/09/21 06:39:05;;;;;;;5.65;3.55;;;6.50;99.90;;;;;;4775323;29;20062;-67
2022/09/21 06:41:31;;;;;;;5.65;4.10;;;6.70;99.90;;;;;;4806129;29;20072;-69
2022/09/21 06:43:56;;;;;;;4.82;3.92;;;6.80;99.90;;;;;;4792938;29;20518;-68
2022/09/21 06:46:23;;;;;;;4.45;3.40;;;6.90;99.90;;;;;;4805880;29;20074;-69
2022/09/21 06:48:48;;;;;;;3.97;2.50;;;7.10;99.90;;;;;;4791093;29;20050;-68
2022/09/21 06:51:14;;;;;;;2.92;2.40;;;7.10;99.90;;;;;;4783113;29;20046;-69
2022/09/21 06:53:40;;;;;;;3.60;2.47;;;7.30;99.90;;;;;;4807642;29;20078;-69
2022/09/21 06:56:09;;;;;;;4.03;2.30;;;7.40;99.90;;;;;;4824107;29;20042;-68
2022/09/21 06:58:36;;;;;;;2.72;1.90;;;7.50;99.90;;;;;;4824168;29;20046;-69
2022/09/21 07:01:11;;;;;;;3.45;2.65;;;7.60;99.90;;;;;;4822812;29;20150;-69
2022/09/21 07:03:39;;;;;;;3.75;2.50;;;7.80;99.90;;;;;;4821491;29;20047;-69
2022/09/21 07:06:05;;;;;;;6.85;5.32;;;7.90;99.90;;;;;;4807744;29;20099;-68
2022/09/21 07:08:31;;;;;;;9.40;6.53;;;8.00;99.90;;;;;;4808952;29;20054;-70
2022/09/21 07:10:59;;;;;;;6.18;4.95;;;8.20;99.90;;;;;;4796092;29;20046;-69
2022/09/21 07:13:28;;;;;;;7.15;4.50;;;8.30;99.90;;;;;;4826711;29;20054;-69
2022/09/21 07:15:54;;;;;;;6.85;3.83;;;8.40;99.90;;;;;;4824758;29;20179;-69
2022/09/21 07:18:20;;;;;;;4.70;3.88;;;8.60;99.90;;;;;;4826817;29;20455;-66
2022/09/21 07:20:47;;;;;;;5.57;3.85;;;8.80;99.90;;;;;;4810602;29;20384;-66
2022/09/21 07:23:15;;;;;;;4.40;4.00;;;8.80;99.90;;;;;;4789436;29;20537;-67
2022/09/21 07:25:42;;;;;;;6.90;4.25;;;9.10;99.90;;;;;;4809404;29;20051;-66
2022/09/21 07:28:09;;;;;;;4.40;3.88;;;9.20;99.90;;;;;;4815747;29;20484;-66
2022/09/21 07:30:36;;;;;;;5.45;3.88;;;9.50;99.90;;;;;;4810794;29;20058;-66
2022/09/21 07:33:01;;;;;;;7.43;4.15;;;9.60;99.90;;;;;;4825639;29;20094;-67
2022/09/21 07:35:27;;;;;;;5.78;3.55;;;9.70;99.90;;;;;;4827265;29;20056;-66
2022/09/21 07:37:55;;;;;;;4.38;3.97;;;9.90;99.90;;;;;;4809060;29;20464;-66
2022/09/21 07:40:20;;;;;;;6.80;4.22;;;10.10;99.90;;;;;;4826135;29;20046;-67
2022/09/21 07:42:46;;;;;;;7.38;4.25;;;10.20;99.90;;;;;;4825892;29;20046;-67
2022/09/21 07:45:12;;;;;;;4.20;3.00;;;10.20;99.90;;;;;;4809719;29;20054;-69
2022/09/21 07:47:37;;;;;;;4.70;2.88;;;10.50;99.90;;;;;;4825670;29;20122;-67
2022/09/21 07:50:03;;;;;;;7.75;3.25;;;10.70;99.90;;;;;;4810329;29;20042;-67
2022/09/21 07:52:28;;;;;;;8.75;3.15;;;10.80;99.90;;;;;;4806467;29;20073;-67
2022/09/21 07:54:54;;;;;;;5.65;2.83;;;11.00;99.90;;;;;;4810135;29;20047;-67
2022/09/21 08:00:04;;;;;;;6.43;2.92;;;11.20;99.90;;;;;;4822304;29;20141;-67
2022/09/21 08:02:30;;;;;;;6.57;3.10;;;11.50;99.90;;;;;;4805763;29;20134;-67
2022/09/21 08:04:55;;;;;;;9.38;3.03;;;11.50;99.90;;;;;;4825462;29;20478;-67
2022/09/21 08:07:21;;;;;;;5.53;2.95;;;11.70;99.90;;;;;;4825497;29;20516;-67
2022/09/21 08:09:49;;;;;;;4.88;2.65;;;11.80;99.90;;;;;;4826458;29;20053;-66
2022/09/21 08:12:17;;;;;;;7.07;3.05;;;12.00;99.90;;;;;;4795058;29;20054;-67
2022/09/21 08:14:43;;;;;;;4.72;2.53;;;12.20;99.90;;;;;;4825689;29;20176;-67
2022/09/21 08:17:09;;;;;;;6.63;3.00;;;12.30;99.90;;;;;;4790495;29;20143;-67
2022/09/21 08:19:35;;;;;;;5.78;2.80;;;12.30;99.90;;;;;;4825414;29;20095;-67
2022/09/21 08:22:01;;;;;;;4.93;2.95;;;12.40;99.90;;;;;;4825111;29;20046;-67
2022/09/21 08:24:26;;;;;;;5.15;2.47;;;12.60;99.90;;;;;;4810094;29;20118;-67
2022/09/21 08:26:52;;;;;;;6.50;3.10;;;12.70;99.90;;;;;;4825104;29;20488;-67
2022/09/21 08:29:18;;;;;;;7.13;2.50;;;12.90;99.90;;;;;;4809888;29;20062;-67
2022/09/21 08:31:45;;;;;;;5.38;1.90;;;13.00;99.90;;;;;;4824944;29;20046;-67
2022/09/21 08:34:22;;;;;;;4.18;2.50;;;13.10;99.90;;;;;;4791371;29;20442;-67
2022/09/21 08:37:12;;;;;;;13.02;2.72;;;13.70;99.90;;;;;;4806939;29;20046;-67
2022/09/21 08:39:38;;;;;;;4.47;2.25;;;13.30;99.90;;;;;;4824155;29;20076;-67
2022/09/21 08:42:11;;;;;;;5.95;1.73;;;13.40;99.90;;;;;;4823990;29;20527;-66
2022/09/21 08:44:42;;;;;;;4.57;1.50;;;13.50;99.90;;;;;;4825287;29;20048;-67
2022/09/21 08:47:26;;;;;;;5.45;1.70;;;13.60;99.90;;;;;;4824939;29;20514;-67
2022/09/21 08:49:56;;;;;;;6.40;1.77;;;13.70;99.90;;;;;;4809531;29;20061;-66
2022/09/21 08:52:23;;;;;;;3.95;1.70;;;13.80;99.90;;;;;;4805277;29;20066;-66
2022/09/21 08:55:13;;;;;;;3.80;1.50;;;13.90;99.90;;;;;;4791404;29;20073;-67
2022/09/21 08:57:39;;;;;;;6.07;1.80;;;14.00;99.90;;;;;;4804415;29;20102;-67
2022/09/21 09:00:13;;;;;;;2.72;1.20;;;14.00;99.90;;;;;;4809769;29;20141;-67
2022/09/21 09:03:09;;;;;;;7.13;1.63;;;14.20;99.90;;;;;;4824214;29;20526;-67
2022/09/21 09:05:50;;;;;;;11.38;1.60;;;14.20;99.90;;;;;;4825243;29;20078;-67
2022/09/21 09:08:41;;;;;;;2.78;1.20;;;14.30;99.90;;;;;;4824376;29;20111;-67
2022/09/21 09:11:36;;;;;;;5.03;1.20;;;14.50;99.90;;;;;;4809601;29;20061;-67
2022/09/21 09:14:37;;;;;;;4.05;1.20;;;14.60;99.90;;;;;;4825914;29;20103;-67
2022/09/21 09:17:36;;;;;;;7.78;1.38;;;14.70;99.90;;;;;;4824345;29;20057;-68
2022/09/21 09:20:06;;;;;;;5.70;0.90;;;14.80;99.90;;;;;;4808403;29;20075;-67
2022/09/21 09:50:50;;;;;;;3.28;0.70;;;15.10;99.90;;;;;;4797925;29;20078;-68
2022/09/21 09:53:20;;;;;;;4.93;0.82;;;15.00;99.90;;;;;;4803404;29;20476;-68
2022/09/21 09:56:11;;;;;;;3.42;1.02;;;14.90;99.90;;;;;;4806595;29;20043;-68
2022/09/21 09:58:56;;;;;;;4.30;0.80;;;15.10;99.90;;;;;;4789755;29;20059;-68
2022/09/21 10:01:58;;;;;;;3.20;0.98;;;15.30;99.90;;;;;;4805347;29;20130;-68
2022/09/21 10:04:24;;;;;;;6.03;1.00;;;15.50;99.90;;;;;;4804357;29;20091;-69
2022/09/21 10:06:50;;;;;;;5.55;1.17;;;15.80;99.90;;;;;;4804073;29;20107;-69
2022/09/21 10:09:30;;;;;;;4.30;0.95;;;16.00;99.90;;;;;;4789599;29;20886;-68
2022/09/21 10:12:23;;;;;;;3.25;1.00;;;16.00;99.90;;;;;;4804162;29;20391;-69
2022/09/21 10:14:51;;;;;;;2.78;0.80;;;16.00;99.90;;;;;;4779944;29;20112;-69
2022/09/21 10:17:18;;;;;;;4.15;1.10;;;16.00;99.90;;;;;;4788441;29;20044;-69
2022/09/21 10:19:45;;;;;;;4.43;0.90;;;15.80;99.90;;;;;;4804282;29;20069;-68
2022/09/21 10:22:21;;;;;;;3.45;0.82;;;15.70;99.90;;;;;;4805940;29;20043;-68
2022/09/21 10:24:52;;;;;;;6.60;1.10;;;15.60;99.90;;;;;;4805035;29;20069;-69
2022/09/21 10:27:41;;;;;;;4.50;0.90;;;15.50;99.90;;;;;;4789656;29;20047;-68
2022/09/21 10:30:29;;;;;;;5.05;0.82;;;15.30;99.90;;;;;;4787616;29;20055;-68
2022/09/21 10:32:57;;;;;;;7.55;1.35;;;15.20;99.90;;;;;;4804885;29;20046;-68
2022/09/21 10:35:24;;;;;;;4.65;0.90;;;15.00;99.90;;;;;;4805267;29;20113;-68
2022/09/21 10:38:09;;;;;;;3.10;0.88;;;14.90;99.90;;;;;;4805785;29;20046;-68
2022/09/21 10:40:38;;;;;;;5.07;1.20;;;14.70;99.90;;;;;;4795462;29;20135;-68
2022/09/21 10:43:03;;;;;;;3.53;1.00;;;14.70;99.90;;;;;;4806070;29;20057;-68
2022/09/21 10:45:31;;;;;;;2.80;1.00;;;14.50;99.90;;;;;;4817398;29;20054;-68
2022/09/21 10:48:15;;;;;;;3.55;1.00;;;14.50;99.90;;;;;;4824230;29;20050;-67
2022/09/21 10:50:48;;;;;;;2.88;0.75;;;14.50;99.90;;;;;;4823169;29;20488;-68
2022/09/21 10:53:24;;;;;;;3.20;1.05;;;14.40;99.90;;;;;;4806640;29;20306;-68
2022/09/21 10:55:57;;;;;;;3.92;0.93;;;14.40;99.90;;;;;;4824264;29;20065;-68
2022/09/21 10:58:24;;;;;;;3.90;0.90;;;14.30;99.90;;;;;;4807145;29;20050;-68
2022/09/21 11:00:51;;;;;;;3.45;0.80;;;14.30;99.90;;;;;;4824156;29;20105;-67
2022/09/21 11:04:06;;;;;;;8.30;1.33;;;14.40;99.90;;;;;;4821806;29;20134;-67
2022/09/21 11:06:45;;;;;;;4.53;0.93;;;14.50;99.90;;;;;;4821567;29;20058;-68
2022/09/21 11:09:30;;;;;;;6.35;1.33;;;14.90;99.90;;;;;;4822929;29;20046;-68
2022/09/21 11:12:04;;;;;;;6.38;1.17;;;15.20;99.90;;;;;;4806213;29;20062;-68
2022/09/21 11:14:51;;;;;;;3.95;1.25;;;15.30;99.90;;;;;;4824188;29;20411;-68
2022/09/21 11:17:38;;;;;;;3.22;0.80;;;15.30;99.90;;;;;;4817402;29;21579;-67
2022/09/21 11:20:13;;;;;;;2.20;0.93;;;15.20;99.90;;;;;;4797622;29;20469;-68
2022/09/21 11:26:53;;;;;;;5.68;1.20;;;15.40;99.90;;;;;;4805433;29;20045;-68
2022/09/21 11:37:55;;;;;;;3.05;1.00;;;16.20;99.90;;;;;;4823411;29;20452;-68
2022/09/21 11:41:03;;;;;;;3.10;1.15;;;16.50;99.90;;;;;;4822458;29;20066;-68
2022/09/21 11:44:02;;;;;;;3.30;0.90;;;16.70;99.90;;;;;;4807411;29;20058;-68
2022/09/21 11:46:37;;;;;;;3.50;0.85;;;16.90;99.90;;;;;;4805968;29;20046;-68
2022/09/21 11:49:33;;;;;;;2.55;0.80;;;17.00;99.90;;;;;;4805441;29;20408;-68
2022/09/21 11:52:25;;;;;;;4.07;1.20;;;17.10;99.90;;;;;;4824845;29;20050;-68
2022/09/21 11:54:54;;;;;;;;;;;17.20;99.90;;;;;;4825048;29;20080;-68
2022/09/21 11:57:27;;;;;;;3.42;0.90;;;17.30;99.90;;;;;;4826366;29;19983;-68
2022/09/21 12:00:10;;;;;;;3.03;0.70;;;17.30;99.90;;;;;;4825714;29;20121;-68
2022/09/21 12:02:53;;;;;;;2.63;0.63;;;17.30;99.90;;;;;;4820626;29;20133;-68
2022/09/21 12:05:30;;;;;;;3.90;1.08;;;17.30;99.90;;;;;;4826874;29;20057;-68
2022/09/21 12:08:14;;;;;;;3.60;1.00;;;17.30;99.90;;;;;;4808951;29;20043;-67
2022/09/21 12:11:13;;;;;;;2.38;0.70;;;17.40;99.90;;;;;;4808349;29;20395;-68
2022/09/21 12:14:06;;;;;;;2.65;0.70;;;17.50;99.90;;;;;;4809811;29;20089;-68
2022/09/21 12:16:39;;;;;;;2.38;0.80;;;17.50;99.50;;;;;;4825246;29;20568;-68
2022/09/21 12:19:26;;;;;;;3.63;1.15;;;17.50;99.90;;;;;;4825719;29;20142;-68
2022/09/21 12:22:04;;;;;;;2.10;0.75;;;17.50;99.90;;;;;;4804862;29;20150;-68
2022/09/21 12:24:53;;;;;;;2.30;0.80;;;17.60;99.90;;;;;;4808293;29;20065;-68
2022/09/21 12:27:37;;;;;;;1.85;0.80;;;17.60;99.90;;;;;;4801414;29;20058;-68
2022/09/21 12:30:11;;;;;;;2.45;0.75;;;17.70;99.90;;;;;;4826434;29;20118;-68
2022/09/21 12:32:57;;;;;;;3.10;0.63;;;17.70;93.90;;;;;;4823966;29;20464;-69
2022/09/21 12:35:38;;;;;;;6.30;1.67;;;17.70;93.60;;;;;;4825084;29;20081;-68
2022/09/21 12:38:15;;;;;;;2.72;0.82;;;17.70;95.00;;;;;;4809501;29;20062;-68
2022/09/21 12:41:02;;;;;;;3.90;0.70;;;17.70;91.90;;;;;;4824872;29;20061;-68
2022/09/21 12:43:43;;;;;;;1.83;0.77;;;17.70;83.00;;;;;;4824229;29;20049;-68
2022/09/21 12:49:45;;;;;;;2.58;0.50;;;17.70;89.20;;;;;;4821285;29;20054;-69
2022/09/21 12:52:20;;;;;;;1.85;0.70;;;17.70;91.40;;;;;;4825100;29;20061;-69
2022/09/21 12:55:27;;;;;;;2.47;0.70;;;17.70;87.70;;;;;;4811411;29;20081;-67
2022/09/21 13:05:35;;;;;;;4.10;0.98;;;17.70;86.90;;;;;;4781766;29;20050;-68
2022/09/21 13:08:18;;;;;;;3.15;0.80;;;17.70;89.30;;;;;;4791009;29;20065;-68
2022/09/21 13:11:06;;;;;;;3.67;1.13;;;17.70;92.30;;;;;;4803663;29;20360;-68
2022/09/21 13:17:28;;;;;;;3.60;1.17;;;17.80;88.10;;;;;;4823584;29;20041;-67
2022/09/21 13:20:36;;;;;;;4.28;0.80;;;17.90;89.10;;;;;;4820238;29;20095;-67
2022/09/21 13:27:46;;;;;;;2.78;0.80;;;17.90;88.10;;;;;;4824968;29;20384;-67
2022/09/21 13:30:35;;;;;;;2.75;1.02;;;17.90;80.70;;;;;;4825534;29;20133;-67
2022/09/21 13:37:18;;;;;;;4.13;1.00;;;17.90;80.60;;;;;;4823846;29;20048;-67
2022/09/21 13:47:31;;;;;;;3.75;0.90;;;17.90;82.10;;;;;;4806780;29;20083;-67
2022/09/21 13:49:57;;;;;;;2.88;1.10;;;18.00;91.90;;;;;;4812356;29;20039;-67
2022/09/21 13:52:39;;;;;;;4.05;1.00;;;17.80;92.70;;;;;;4824138;29;20364;-67
2022/09/21 13:55:22;;;;;;;2.03;0.90;;;17.70;87.00;;;;;;4823153;29;20449;-67
2022/09/21 14:01:33;;;;;;;3.30;0.80;;;17.50;81.50;;;;;;4808014;29;20324;-67
2022/09/21 14:17:09;;;;;;;3.80;1.15;;;17.60;90.00;;;;;;4816898;29;20088;-67
2022/09/21 14:31:35;;;;;;;4.95;1.02;;;17.50;92.70;;;;;;4824439;29;20042;-67
2022/09/21 14:34:19;;;;;;;3.10;0.90;;;17.60;91.20;;;;;;4820759;29;20046;-68
2022/09/21 14:36:52;;;;;;;4.07;0.80;;;17.60;87.60;;;;;;4807228;29;20048;-67
2022/09/21 14:44:27;;;;;;;4.47;1.30;;;17.70;91.40;;;;;;4823908;29;20494;-67
2022/09/21 14:51:43;;;;;;;2.63;0.60;;;17.60;80.80;;;;;;4823023;29;20094;-67
2022/09/21 14:54:30;;;;;;;2.17;0.95;;;17.70;82.20;;;;;;4789538;29;20061;-67
2022/09/21 14:57:33;;;;;;;2.60;0.80;;;17.70;89.30;;;;;;4774490;29;20107;-67
2022/09/21 15:00:19;;;;;;;3.63;0.77;;;17.70;79.00;;;;;;4800494;29;20058;-67
2022/09/21 15:02:46;;;;;;;2.25;0.93;;;17.70;81.60;;;;;;4807512;29;20153;-67
2022/09/21 15:10:54;;;;;;;3.13;1.05;;;17.70;89.40;;;;;;4824029;29;20054;-67
2022/09/21 15:13:08;;;;;;;1.92;0.90;;;17.60;79.50;;;;;;4819140;29;20050;-67
2022/09/21 15:15:45;;;;;;;1.90;0.63;;;17.60;84.20;;;;;;4774922;29;20055;-67
2022/09/21 15:18:19;;;;;;;1.88;0.73;;;17.60;86.20;;;;;;4810850;29;20425;-67
2022/09/21 15:21:01;;;;;;;2.85;0.73;;;17.50;86.80;;;;;;4808630;29;20405;-67
2022/09/21 15:23:38;;;;;;;2.10;0.63;;;17.40;90.00;;;;;;4821381;29;20121;-67
2022/09/21 15:26:12;;;;;;;1.73;0.70;;;17.20;91.00;;;;;;4790775;29;20485;-67
2022/09/21 15:28:47;;;;;;;2.40;0.80;;;16.90;94.50;;;;;;4811073;29;20156;-67
2022/09/21 15:31:13;;;;;;;2.38;1.02;;;16.70;96.90;;;;;;4827315;29;20472;-67
2022/09/21 15:34:07;;;;;;;1.60;0.73;;;16.50;99.30;;;;;;4809475;29;20471;-67
2022/09/21 15:40:00;;;;;;;1.47;0.83;;;16.00;99.90;;;;;;4826127;29;20041;-67
2022/09/21 15:42:35;;;;;;;4.22;0.70;;;15.90;99.90;;;;;;4810494;29;20369;-67
2022/09/21 15:48:41;;;;;;;2.95;0.70;;;15.90;99.90;;;;;;4802704;29;20138;-67
2022/09/21 15:51:25;;;;;;;2.67;0.77;;;15.90;99.90;;;;;;4825325;29;20039;-67
2022/09/21 15:53:56;;;;;;;2.95;0.80;;;15.90;99.90;;;;;;4825281;29;20129;-67
2022/09/21 15:56:27;;;;;;;2.53;0.70;;;15.90;99.90;;;;;;4825763;29;20050;-67
2022/09/21 15:59:07;;;;;;;3.30;0.75;;;15.80;99.90;;;;;;4827114;29;20055;-67